Time;durP1;ratioP1;P1;durP2;ratioP2;P2;SDS_P1;SDS_P2;PMS_P1;PMS_P2;Temp;Humidity;BMP_temperature;BMP_pressure;BME280_temperature;BME280_humidity;BME280_pressure;Samples;Min_cycle;Max_cycle;Signal;HPM_P1;HPM_P2
2022/08/09 00:01:30;;;;;;;3.97;2.57;;;;;;;;;;5055936;28;20240;-68
2022/08/09 00:03:56;;;;;;;2.77;2.20;;;;;;;;;;5057045;28;20270;-70
2022/08/09 00:06:22;;;;;;;5.33;2.70;;;;;;;;;;5055939;28;20301;-68
2022/08/09 00:08:49;;;;;;;3.03;2.40;;;;;;;;;;5056262;28;20179;-68
2022/08/09 00:11:15;;;;;;;2.97;2.67;;;;;;;;;;5054835;28;20240;-68
2022/08/09 00:13:41;;;;;;;3.40;2.60;;;;;;;;;;5054876;28;20213;-69
2022/08/09 00:16:07;;;;;;;3.80;2.53;;;;;;;;;;5054632;28;20194;-68
2022/08/09 00:18:33;;;;;;;4.23;2.60;;;;;;;;;;5055980;28;20549;-68
2022/08/09 00:21:01;;;;;;;5.43;2.70;;;;;;;;;;5055863;28;20312;-69
2022/08/09 00:23:27;;;;;;;2.50;2.30;;;;;;;;;;5055820;28;20654;-68
2022/08/09 00:25:53;;;;;;;3.23;2.67;;;;;;;;;;5055897;28;20206;-68
2022/08/09 00:28:20;;;;;;;2.93;2.63;;;;;;;;;;5055714;28;20186;-69
2022/08/09 00:30:46;;;;;;;3.83;2.63;;;;;;;;;;5055588;28;20316;-68
2022/08/09 00:33:12;;;;;;;3.63;2.90;;;;;;;;;;5055693;28;20206;-68
2022/08/09 00:35:37;;;;;;;3.80;2.60;;;;;;;;;;5054289;28;20202;-69
2022/08/09 00:38:03;;;;;;;3.47;2.87;;;;;;;;;;5054244;28;20256;-69
2022/08/09 00:40:29;;;;;;;4.47;3.00;;;;;;;;;;5055493;28;20174;-69
2022/08/09 00:42:55;;;;;;;4.97;2.90;;;;;;;;;;5054323;28;20182;-68
2022/08/09 00:45:21;;;;;;;5.30;3.00;;;;;;;;;;5055395;28;20179;-68
2022/08/09 00:47:47;;;;;;;3.53;2.70;;;;;;;;;;5054012;28;20251;-69
2022/08/09 00:50:13;;;;;;;6.83;3.50;;;;;;;;;;5055533;28;20205;-69
2022/08/09 00:52:39;;;;;;;4.30;2.70;;;;;;;;;;5055454;28;20594;-69
2022/08/09 00:55:05;;;;;;;6.50;2.80;;;;;;;;;;5055264;28;20205;-69
2022/08/09 00:57:31;;;;;;;4.47;2.70;;;;;;;;;;5053268;28;20234;-70
2022/08/09 00:59:58;;;;;;;5.77;3.17;;;;;;;;;;5054009;28;20185;-68
2022/08/09 01:02:26;;;;;;;4.33;2.80;;;;;;;;;;5055347;28;20179;-68
2022/08/09 01:05:00;;;;;;;6.27;3.10;;;;;;;;;;5055184;28;20308;-68
2022/08/09 01:07:45;;;;;;;4.30;3.23;;;;;;;;;;5053612;28;20220;-71
2022/08/09 01:10:30;;;;;;;5.20;2.80;;;;;;;;;;5055005;28;20185;-68
2022/08/09 01:13:05;;;;;;;3.37;2.57;;;;;;;;;;5055021;28;20175;-68
2022/08/09 01:15:34;;;;;;;5.87;3.10;;;;;;;;;;5055059;28;20178;-68
2022/08/09 01:18:06;;;;;;;6.33;3.10;;;;;;;;;;5055018;28;20175;-68
2022/08/09 01:20:37;;;;;;;3.20;2.80;;;;;;;;;;5054743;28;20175;-70
2022/08/09 01:23:15;;;;;;;3.27;2.93;;;;;;;;;;5054862;28;20212;-67
2022/08/09 01:25:50;;;;;;;3.80;3.10;;;;;;;;;;5054611;28;20205;-68
2022/08/09 01:28:16;;;;;;;6.40;3.60;;;;;;;;;;5054893;28;20177;-69
2022/08/09 01:30:42;;;;;;;4.57;3.20;;;;;;;;;;5054720;28;20773;-71
2022/08/09 01:33:09;;;;;;;4.10;3.10;;;;;;;;;;5053274;28;20185;-70
2022/08/09 01:35:54;;;;;;;3.47;3.07;;;;;;;;;;5054363;28;20272;-70
2022/08/09 01:38:22;;;;;;;6.13;3.23;;;;;;;;;;5053109;28;20170;-68
2022/08/09 01:40:51;;;;;;;4.27;3.30;;;;;;;;;;5054302;28;20189;-68
2022/08/09 01:43:18;;;;;;;4.33;3.00;;;;;;;;;;5052988;28;20178;-69
2022/08/09 01:45:45;;;;;;;5.47;3.30;;;;;;;;;;5054238;28;20316;-69
2022/08/09 01:48:11;;;;;;;3.80;3.37;;;;;;;;;;5054304;28;20181;-69
2022/08/09 01:50:38;;;;;;;6.07;3.33;;;;;;;;;;5054187;28;20252;-68
2022/08/09 01:53:05;;;;;;;6.67;3.20;;;;;;;;;;5054123;28;20174;-69
2022/08/09 01:55:32;;;;;;;3.17;2.87;;;;;;;;;;5052639;28;20265;-68
2022/08/09 01:57:59;;;;;;;4.23;2.90;;;;;;;;;;5054107;28;20205;-68
2022/08/09 02:00:26;;;;;;;6.83;3.30;;;;;;;;;;5054281;28;20190;-69
2022/08/09 02:02:52;;;;;;;3.30;2.90;;;;;;;;;;5052682;28;20193;-68
2022/08/09 02:05:21;;;;;;;4.00;3.20;;;;;;;;;;5053953;28;20182;-68
2022/08/09 02:07:52;;;;;;;4.07;3.23;;;;;;;;;;5053373;28;20727;-68
2022/08/09 02:10:20;;;;;;;3.03;2.77;;;;;;;;;;5053676;28;20259;-68
2022/08/09 02:12:47;;;;;;;5.27;3.13;;;;;;;;;;5053793;28;20182;-69
2022/08/09 02:15:15;;;;;;;3.73;3.07;;;;;;;;;;5052495;28;20639;-68
2022/08/09 02:17:42;;;;;;;4.20;3.10;;;;;;;;;;5052367;28;20200;-68
2022/08/09 02:20:08;;;;;;;4.20;3.20;;;;;;;;;;5052436;28;20273;-68
2022/08/09 02:22:39;;;;;;;3.97;3.17;;;;;;;;;;5053853;28;20293;-68
2022/08/09 02:25:09;;;;;;;4.97;3.20;;;;;;;;;;5053586;28;20232;-68
2022/08/09 02:27:36;;;;;;;7.07;3.37;;;;;;;;;;5052297;28;20205;-68
2022/08/09 02:30:02;;;;;;;3.33;2.90;;;;;;;;;;5053950;28;20244;-68
2022/08/09 02:32:30;;;;;;;4.60;3.23;;;;;;;;;;5052198;28;20265;-69
2022/08/09 02:35:03;;;;;;;8.17;2.90;;;;;;;;;;5052178;28;20190;-69
2022/08/09 02:37:30;;;;;;;5.33;3.57;;;;;;;;;;5052040;28;20195;-68
2022/08/09 02:39:59;;;;;;;6.73;3.57;;;;;;;;;;5052159;28;20630;-68
2022/08/09 02:42:30;;;;;;;5.87;2.77;;;;;;;;;;5052159;28;20179;-68
2022/08/09 02:45:00;;;;;;;5.20;2.87;;;;;;;;;;5053558;28;20221;-69
2022/08/09 02:47:27;;;;;;;2.83;2.53;;;;;;;;;;5053446;28;20674;-69
2022/08/09 02:49:59;;;;;;;3.53;3.20;;;;;;;;;;5051939;28;20626;-68
2022/08/09 02:52:31;;;;;;;3.73;2.90;;;;;;;;;;5053159;28;20556;-68
2022/08/09 02:54:58;;;;;;;3.37;3.07;;;;;;;;;;5051845;28;20202;-69
2022/08/09 02:57:24;;;;;;;3.50;3.10;;;;;;;;;;5051827;28;20198;-69
2022/08/09 02:59:51;;;;;;;5.10;3.00;;;;;;;;;;5053065;28;20174;-68
2022/08/09 03:02:19;;;;;;;3.13;2.80;;;;;;;;;;5053092;28;20212;-69
2022/08/09 03:04:47;;;;;;;5.80;3.00;;;;;;;;;;5053315;28;20170;-69
2022/08/09 03:07:14;;;;;;;8.57;2.80;;;;;;;;;;5052827;28;20820;-69
2022/08/09 03:09:41;;;;;;;4.47;3.10;;;;;;;;;;5052840;28;20189;-68
2022/08/09 03:12:07;;;;;;;5.00;3.33;;;;;;;;;;5051605;28;20299;-69
2022/08/09 03:14:33;;;;;;;4.13;3.50;;;;;;;;;;5053182;28;20174;-68
2022/08/09 03:17:00;;;;;;;3.93;3.50;;;;;;;;;;5051692;28;20601;-70
2022/08/09 03:19:27;;;;;;;5.00;3.90;;;;;;;;;;5054072;28;20182;-69
2022/08/09 03:21:55;;;;;;;7.10;4.10;;;;;;;;;;5057593;28;20221;-69
2022/08/09 03:24:21;;;;;;;8.47;4.00;;;;;;;;;;5057245;28;20178;-68
2022/08/09 03:26:47;;;;;;;6.97;4.40;;;;;;;;;;5056870;28;20293;-68
2022/08/09 03:29:14;;;;;;;6.07;4.73;;;;;;;;;;5057343;28;20175;-68
2022/08/09 03:31:41;;;;;;;6.40;4.20;;;;;;;;;;5056875;28;20260;-68
2022/08/09 03:34:07;;;;;;;4.70;4.10;;;;;;;;;;5055648;28;20703;-68
2022/08/09 03:36:33;;;;;;;7.33;5.13;;;;;;;;;;5056625;28;20233;-68
2022/08/09 03:38:59;;;;;;;4.60;4.20;;;;;;;;;;5057260;28;20174;-68
2022/08/09 03:41:25;;;;;;;5.80;4.17;;;;;;;;;;5057127;28;20186;-68
2022/08/09 03:43:51;;;;;;;4.57;4.03;;;;;;;;;;5056701;28;20269;-68
2022/08/09 03:46:17;;;;;;;6.33;4.50;;;;;;;;;;5056439;28;20197;-68
2022/08/09 03:48:44;;;;;;;6.23;4.30;;;;;;;;;;5055221;28;20205;-68
2022/08/09 03:51:11;;;;;;;5.57;4.10;;;;;;;;;;5056513;28;20202;-68
2022/08/09 03:53:37;;;;;;;7.27;4.67;;;;;;;;;;5056372;28;20179;-68
2022/08/09 03:56:04;;;;;;;5.57;3.93;;;;;;;;;;5055006;28;20644;-69
2022/08/09 03:58:30;;;;;;;5.83;4.10;;;;;;;;;;5056286;28;20179;-68
2022/08/09 04:00:56;;;;;;;;;;;;;;;;;;5055873;28;20187;-68
2022/08/09 04:03:22;;;;;;;;;;;;;;;;;;5055092;28;20001;-69
2022/08/09 04:05:48;;;;;;;;;;;;;;;;;;5055023;28;20042;-69
2022/08/09 04:08:14;;;;;;;;;;;;;;;;;;5056800;28;19984;-68
2022/08/09 04:10:40;;;;;;;;;;;;;;;;;;5056737;28;20322;-68
2022/08/09 04:13:09;;;;;;;;;;;;;;;;;;5056959;28;20041;-68
2022/08/09 04:15:35;;;;;;;;;;;;;;;;;;5054971;28;19950;-68
2022/08/09 04:18:01;;;;;;;;;;;;;;;;;;5056603;28;20006;-69
2022/08/09 04:20:26;;;;;;;;;;;;;;;;;;5054976;28;19949;-69
2022/08/09 04:22:52;;;;;;;8.80;4.00;;;;;;;;;;5056144;28;20341;-68
2022/08/09 04:25:18;;;;;;;4.93;4.00;;;;;;;;;;5055720;28;20170;-69
2022/08/09 04:27:44;;;;;;;6.83;4.07;;;;;;;;;;5054525;28;20183;-68
2022/08/09 04:30:12;;;;;;;5.63;4.37;;;;;;;;;;5055396;28;20214;-68
2022/08/09 04:32:38;;;;;;;6.60;4.20;;;;;;;;;;5054263;28;20178;-68
2022/08/09 04:35:06;;;;;;;4.90;4.33;;;;;;;;;;5055540;28;20250;-68
2022/08/09 04:37:32;;;;;;;5.53;4.40;;;;;;;;;;5055477;28;20190;-68
2022/08/09 04:39:58;;;;;;;7.50;4.70;;;;;;;;;;5054139;28;20179;-69
2022/08/09 04:42:28;;;;;;;5.63;5.00;;;;;;;;;;5055479;28;20183;-69
2022/08/09 04:44:54;;;;;;;7.30;5.57;;;;;;;;;;5056002;28;20178;-68
2022/08/09 04:47:20;;;;;;;10.57;5.97;;;;;;;;;;5054047;28;20214;-68
2022/08/09 04:49:45;;;;;;;6.13;4.77;;;;;;;;;;5055283;28;20532;-69
2022/08/09 04:52:12;;;;;;;4.90;4.40;;;;;;;;;;5055110;28;20271;-69
2022/08/09 04:54:38;;;;;;;6.43;5.63;;;;;;;;;;5055423;28;20170;-68
2022/08/09 04:57:03;;;;;;;7.47;5.87;;;;;;;;;;5053803;28;20563;-68
2022/08/09 04:59:30;;;;;;;7.67;5.43;;;;;;;;;;5053780;28;20268;-68
2022/08/09 05:01:56;;;;;;;6.60;4.93;;;;;;;;;;5055096;28;20178;-71
2022/08/09 05:04:21;;;;;;;10.70;5.10;;;;;;;;;;5055013;28;20182;-69
2022/08/09 05:06:47;;;;;;;6.27;5.40;;;;;;;;;;5053429;28;20263;-68
2022/08/09 05:09:13;;;;;;;8.27;5.53;;;;;;;;;;5055244;28;20194;-68
2022/08/09 05:11:39;;;;;;;10.27;5.20;;;;;;;;;;5054950;28;20268;-69
2022/08/09 05:14:05;;;;;;;6.60;5.23;;;;;;;;;;5054866;28;20178;-69
2022/08/09 05:16:31;;;;;;;8.20;5.60;;;;;;;;;;5055019;28;20272;-68
2022/08/09 05:18:57;;;;;;;5.70;4.70;;;;;;;;;;5055071;28;20210;-68
2022/08/09 05:21:23;;;;;;;11.43;5.67;;;;;;;;;;5054911;28;20186;-69
2022/08/09 05:23:49;;;;;;;8.17;5.57;;;;;;;;;;5055048;28;20178;-69
2022/08/09 05:26:15;;;;;;;5.13;4.50;;;;;;;;;;5054787;28;20198;-68
2022/08/09 05:28:41;;;;;;;7.13;5.53;;;;;;;;;;5055138;28;20179;-68
2022/08/09 05:31:07;;;;;;;11.47;4.40;;;;;;;;;;5082786;23;20230;-68
2022/08/09 05:33:33;;;;;;;10.90;5.20;;;;;;;;;;5054143;28;20179;-68
2022/08/09 05:35:59;;;;;;;4.87;4.37;;;;;;;;;;5055998;28;20635;-66
2022/08/09 05:38:25;;;;;;;5.20;4.70;;;;;;;;;;5055826;28;20178;-68
2022/08/09 05:40:51;;;;;;;8.57;4.73;;;;;;;;;;5053885;28;20198;-68
2022/08/09 05:43:19;;;;;;;7.23;5.03;;;;;;;;;;5054759;28;20182;-68
2022/08/09 05:45:45;;;;;;;6.87;4.53;;;;;;;;;;5056284;28;20596;-68
2022/08/09 05:48:11;;;;;;;11.87;5.00;;;;;;;;;;5055782;28;20174;-69
2022/08/09 05:50:40;;;;;;;7.43;4.87;;;;;;;;;;5055238;28;20701;-69
2022/08/09 05:53:06;;;;;;;9.03;5.03;;;;;;;;;;5054608;28;20206;-68
2022/08/09 05:55:32;;;;;;;5.30;4.33;;;;;;;;;;5054874;28;20186;-68
2022/08/09 05:57:58;;;;;;;7.57;4.50;;;;;;;;;;5055575;28;20189;-68
2022/08/09 06:00:25;;;;;;;9.97;5.00;;;;;;;;;;5053734;28;20188;-66
2022/08/09 06:02:51;;;;;;;8.23;4.77;;;;;;;;;;5055142;28;20175;-67
2022/08/09 06:05:17;;;;;;;8.80;4.60;;;;;;;;;;5054946;28;20253;-68
2022/08/09 06:07:43;;;;;;;8.33;4.90;;;;;;;;;;5053967;28;20182;-67
2022/08/09 06:10:09;;;;;;;7.43;4.03;;;;;;;;;;5055254;28;20170;-68
2022/08/09 06:12:35;;;;;;;5.97;4.50;;;;;;;;;;5054147;28;20201;-68
2022/08/09 06:15:01;;;;;;;6.27;4.47;;;;;;;;;;5055776;28;20662;-68
2022/08/09 06:17:27;;;;;;;4.83;3.97;;;;;;;;;;5054765;28;20183;-68
2022/08/09 06:19:53;;;;;;;5.97;4.40;;;;;;;;;;5056126;28;20178;-67
2022/08/09 06:22:19;;;;;;;6.87;4.00;;;;;;;;;;5055354;28;20202;-67
2022/08/09 06:24:45;;;;;;;12.43;4.80;;;;;;;;;;5055153;28;20531;-68
2022/08/09 06:27:12;;;;;;;6.20;4.70;;;;;;;;;;5055437;28;20178;-68
2022/08/09 06:29:37;;;;;;;7.10;4.50;;;;;;;;;;5053407;28;20191;-68
2022/08/09 06:32:04;;;;;;;5.43;4.40;;;;;;;;;;5054519;28;20746;-68
2022/08/09 06:34:29;;;;;;;4.00;3.60;;;;;;;;;;5054999;28;20171;-67
2022/08/09 06:36:55;;;;;;;8.23;4.40;;;;;;;;;;5053208;28;20551;-68
2022/08/09 06:39:21;;;;;;;7.57;3.80;;;;;;;;;;5054889;28;20619;-68
2022/08/09 06:41:47;;;;;;;10.00;4.37;;;;;;;;;;5054454;28;20695;-68
2022/08/09 06:44:13;;;;;;;6.50;4.00;;;;;;;;;;5052878;28;20205;-68
2022/08/09 06:46:40;;;;;;;8.30;3.90;;;;;;;;;;5053048;28;20579;-68
2022/08/09 06:49:06;;;;;;;4.30;3.90;;;;;;;;;;5054399;28;20181;-68
2022/08/09 06:51:34;;;;;;;9.37;4.07;;;;;;;;;;5055597;28;20214;-69
2022/08/09 06:54:00;;;;;;;5.97;4.00;;;;;;;;;;5053889;28;20595;-69
2022/08/09 06:56:26;;;;;;;4.93;3.93;;;;;;;;;;5055057;28;20261;-66
2022/08/09 06:58:52;;;;;;;5.33;4.80;;;;;;;;;;5054603;28;20213;-68
2022/08/09 07:01:18;;;;;;;7.53;4.17;;;;;;;;;;5054661;28;20195;-67
2022/08/09 07:03:44;;;;;;;8.30;4.07;;;;;;;;;;5058383;28;20186;-69
2022/08/09 07:06:10;;;;;;;5.17;4.07;;;;;;;;;;5056140;28;20240;-69
2022/08/09 07:08:36;;;;;;;5.93;3.57;;;;;;;;;;5054659;28;20646;-67
2022/08/09 07:11:03;;;;;;;5.83;4.00;;;;;;;;;;5055055;28;20241;-70
2022/08/09 07:13:29;;;;;;;5.30;3.77;;;;;;;;;;5052953;28;20199;-70
2022/08/09 07:15:55;;;;;;;5.77;3.57;;;;;;;;;;5052856;28;20532;-73
2022/08/09 07:18:21;;;;;;;4.73;3.47;;;;;;;;;;5054095;28;20197;-68
2022/08/09 07:20:49;;;;;;;5.93;3.80;;;;;;;;;;5053736;28;20712;-68
2022/08/09 07:23:16;;;;;;;6.00;3.83;;;;;;;;;;5054184;28;20181;-68
2022/08/09 07:25:42;;;;;;;5.50;3.57;;;;;;;;;;5054636;28;20233;-68
2022/08/09 07:28:10;;;;;;;6.00;3.27;;;;;;;;;;5052216;28;20178;-68
2022/08/09 07:30:36;;;;;;;4.43;3.90;;;;;;;;;;5053135;28;20210;-68
2022/08/09 07:33:02;;;;;;;5.00;3.60;;;;;;;;;;5053605;28;20220;-69
2022/08/09 07:35:28;;;;;;;5.27;3.40;;;;;;;;;;5053182;28;20185;-68
2022/08/09 07:37:54;;;;;;;8.10;3.53;;;;;;;;;;5052120;28;20662;-68
2022/08/09 07:40:20;;;;;;;7.30;4.13;;;;;;;;;;5052869;28;20174;-69
2022/08/09 07:42:54;;;;;;;5.50;4.00;;;;;;;;;;5053081;28;20178;-68
2022/08/09 07:45:24;;;;;;;8.43;4.33;;;;;;;;;;5053097;28;20202;-68
2022/08/09 07:47:51;;;;;;;7.17;4.43;;;;;;;;;;5051754;28;20167;-68
2022/08/09 07:50:17;;;;;;;12.43;5.67;;;;;;;;;;5053278;28;20174;-68
2022/08/09 07:52:42;;;;;;;9.60;6.30;;;;;;;;;;5052847;28;20182;-68
2022/08/09 07:55:08;;;;;;;9.17;5.00;;;;;;;;;;5052933;28;20175;-68
2022/08/09 07:57:34;;;;;;;9.03;4.57;;;;;;;;;;5051654;28;20178;-68
2022/08/09 08:00:00;;;;;;;11.37;5.27;;;;;;;;;;5053438;28;20228;-68
2022/08/09 08:02:26;;;;;;;6.40;4.73;;;;;;;;;;5051784;28;20203;-68
2022/08/09 08:04:52;;;;;;;9.63;5.00;;;;;;;;;;5053433;28;20261;-68
2022/08/09 08:07:18;;;;;;;9.10;5.30;;;;;;;;;;5056750;28;20522;-68
2022/08/09 08:09:44;;;;;;;10.73;4.80;;;;;;;;;;5055375;28;20569;-68
2022/08/09 08:12:10;;;;;;;9.07;4.17;;;;;;;;;;5056392;28;20713;-68
2022/08/09 08:14:36;;;;;;;8.40;5.73;;;;;;;;;;5056819;28;20174;-68
2022/08/09 08:17:02;;;;;;;10.43;5.30;;;;;;;;;;5055325;28;20609;-68
2022/08/09 08:19:28;;;;;;;9.67;5.87;;;;;;;;;;5056572;28;20174;-67
2022/08/09 08:21:54;;;;;;;11.17;4.97;;;;;;;;;;5055138;28;20573;-68
2022/08/09 08:24:20;;;;;;;10.23;5.97;;;;;;;;;;5055048;28;20183;-69
2022/08/09 08:26:46;;;;;;;11.47;4.83;;;;;;;;;;5056389;28;20696;-68
2022/08/09 08:29:12;;;;;;;8.80;5.07;;;;;;;;;;5056616;28;20186;-68
2022/08/09 08:31:38;;;;;;;6.93;4.17;;;;;;;;;;5054693;28;20312;-68
2022/08/09 08:34:04;;;;;;;8.83;5.20;;;;;;;;;;5054989;28;20210;-68
2022/08/09 08:36:30;;;;;;;9.13;4.57;;;;;;;;;;5054907;28;20178;-69
2022/08/09 08:38:57;;;;;;;5.67;4.13;;;;;;;;;;5054946;28;20289;-68
2022/08/09 08:41:23;;;;;;;9.07;4.20;;;;;;;;;;5054803;28;20313;-68
2022/08/09 08:43:49;;;;;;;7.13;4.33;;;;;;;;;;5054746;28;20183;-68
2022/08/09 08:46:17;;;;;;;7.47;4.50;;;;;;;;;;5055863;28;20657;-68
2022/08/09 08:48:43;;;;;;;5.97;4.07;;;;;;;;;;5055874;28;20606;-68
2022/08/09 08:51:09;;;;;;;6.23;4.47;;;;;;;;;;5054977;28;20226;-69
2022/08/09 08:53:35;;;;;;;8.10;4.63;;;;;;;;;;5054705;28;20206;-70
2022/08/09 08:56:01;;;;;;;9.03;4.30;;;;;;;;;;5054550;28;20174;-68
2022/08/09 08:58:28;;;;;;;7.13;3.90;;;;;;;;;;5054366;28;20182;-69
2022/08/09 09:00:55;;;;;;;7.47;3.70;;;;;;;;;;5056050;28;20327;-68
2022/08/09 09:03:21;;;;;;;5.23;3.93;;;;;;;;;;5056187;28;20179;-70
2022/08/09 09:05:47;;;;;;;6.40;4.07;;;;;;;;;;5055781;28;20316;-69
2022/08/09 09:08:14;;;;;;;18.40;6.17;;;;;;;;;;5056131;28;20174;-69
2022/08/09 09:10:42;;;;;;;8.27;3.93;;;;;;;;;;5054122;28;20213;-69
2022/08/09 09:13:08;;;;;;;7.90;4.30;;;;;;;;;;5055240;28;20603;-69
2022/08/09 09:15:34;;;;;;;7.30;3.70;;;;;;;;;;5054092;28;20181;-68
2022/08/09 09:18:00;;;;;;;6.97;3.83;;;;;;;;;;5054330;28;20257;-69
2022/08/09 09:20:26;;;;;;;8.23;4.40;;;;;;;;;;5055514;28;20206;-69
2022/08/09 09:22:54;;;;;;;6.40;3.33;;;;;;;;;;5055300;28;20182;-69
2022/08/09 09:25:31;;;;;;;8.37;3.83;;;;;;;;;;5053942;28;20175;-67
2022/08/09 09:27:57;;;;;;;4.80;4.10;;;;;;;;;;5055457;28;20188;-68
2022/08/09 09:30:23;;;;;;;6.37;3.90;;;;;;;;;;5054866;28;20220;-69
2022/08/09 09:33:09;;;;;;;4.67;3.33;;;;;;;;;;5055734;28;20159;-69
2022/08/09 09:35:56;;;;;;;4.30;3.90;;;;;;;;;;5053638;28;20182;-69
2022/08/09 09:38:22;;;;;;;5.57;3.40;;;;;;;;;;5047005;28;20190;-69
2022/08/09 09:40:48;;;;;;;5.80;3.90;;;;;;;;;;5053641;28;20198;-69
2022/08/09 09:43:18;;;;;;;4.73;3.20;;;;;;;;;;5054903;28;20179;-69
2022/08/09 09:45:49;;;;;;;4.20;3.30;;;;;;;;;;5053650;28;20228;-69
2022/08/09 09:48:15;;;;;;;5.10;3.80;;;;;;;;;;5055018;28;20186;-69
2022/08/09 09:50:42;;;;;;;4.20;3.73;;;;;;;;;;5054607;28;20233;-69
2022/08/09 09:53:13;;;;;;;5.57;3.57;;;;;;;;;;5055176;28;20178;-69
2022/08/09 09:55:56;;;;;;;5.13;3.63;;;;;;;;;;5055169;28;20216;-69
2022/08/09 09:58:23;;;;;;;3.93;3.57;;;;;;;;;;5055240;28;20178;-68
2022/08/09 10:00:50;;;;;;;5.37;3.60;;;;;;;;;;5053292;28;20202;-67
2022/08/09 10:03:16;;;;;;;4.77;3.50;;;;;;;;;;5054740;28;20186;-69
2022/08/09 10:05:58;;;;;;;4.93;3.37;;;;;;;;;;5055080;28;20236;-68
2022/08/09 10:08:24;;;;;;;5.27;3.43;;;;;;;;;;5054718;28;20183;-69
2022/08/09 10:10:50;;;;;;;5.50;3.77;;;;;;;;;;5054259;28;20236;-69
2022/08/09 10:13:17;;;;;;;6.97;3.60;;;;;;;;;;5054872;28;20178;-69
2022/08/09 10:15:48;;;;;;;4.77;3.40;;;;;;;;;;5054355;28;20220;-69
2022/08/09 10:18:13;;;;;;;6.60;3.27;;;;;;;;;;5053298;28;20175;-66
2022/08/09 10:20:39;;;;;;;4.93;3.40;;;;;;;;;;5054654;28;20202;-69
2022/08/09 10:23:13;;;;;;;7.83;3.30;;;;;;;;;;5053131;28;20277;-69
2022/08/09 10:25:40;;;;;;;6.60;3.70;;;;;;;;;;5052900;28;20315;-69
2022/08/09 10:28:06;;;;;;;4.33;3.20;;;;;;;;;;5053785;28;20668;-67
2022/08/09 10:30:32;;;;;;;5.63;3.60;;;;;;;;;;5054307;28;20205;-68
2022/08/09 10:32:58;;;;;;;2.83;2.63;;;;;;;;;;5054319;28;20174;-69
2022/08/09 10:35:24;;;;;;;4.73;2.90;;;;;;;;;;5052625;28;20232;-68
2022/08/09 10:37:50;;;;;;;5.47;3.30;;;;;;;;;;5054259;28;20178;-68
2022/08/09 10:40:16;;;;;;;4.10;3.70;;;;;;;;;;5053898;28;20240;-68
2022/08/09 10:42:42;;;;;;;4.13;3.30;;;;;;;;;;5054243;28;20662;-68
2022/08/09 10:45:10;;;;;;;8.90;3.37;;;;;;;;;;5054129;28;20177;-68
2022/08/09 10:47:36;;;;;;;3.47;3.17;;;;;;;;;;5052617;28;20655;-68
2022/08/09 10:50:23;;;;;;;4.17;2.80;;;;;;;;;;5053679;28;20191;-69
2022/08/09 10:52:55;;;;;;;10.90;4.00;;;;;;;;;;5053587;28;20192;-68
2022/08/09 10:55:22;;;;;;;8.13;3.50;;;;;;;;;;5053919;28;20510;-68
2022/08/09 10:57:48;;;;;;;5.77;3.80;;;;;;;;;;5053835;28;20182;-68
2022/08/09 11:00:33;;;;;;;9.53;3.93;;;;;;;;;;5053500;28;20232;-68
2022/08/09 11:02:59;;;;;;;6.10;3.90;;;;;;;;;;5052439;28;20595;-68
2022/08/09 11:05:26;;;;;;;4.13;3.60;;;;;;;;;;5053649;28;20198;-68
2022/08/09 11:07:52;;;;;;;6.13;3.20;;;;;;;;;;5054052;28;20521;-66
2022/08/09 11:10:37;;;;;;;4.30;3.90;;;;;;;;;;5053765;28;20190;-68
2022/08/09 11:13:16;;;;;;;6.43;3.63;;;;;;;;;;5052297;28;20236;-68
2022/08/09 11:15:43;;;;;;;3.97;3.40;;;;;;;;;;5053534;28;20658;-68
2022/08/09 11:18:11;;;;;;;4.47;3.70;;;;;;;;;;5054122;28;20718;-69
2022/08/09 11:20:38;;;;;;;3.73;3.17;;;;;;;;;;5052304;28;20202;-68
2022/08/09 11:23:04;;;;;;;4.73;3.90;;;;;;;;;;5053496;28;20261;-68
2022/08/09 11:25:30;;;;;;;4.90;3.93;;;;;;;;;;5052156;28;20218;-69
2022/08/09 11:27:57;;;;;;;3.50;3.13;;;;;;;;;;5052048;28;20716;-69
2022/08/09 11:30:25;;;;;;;3.57;3.27;;;;;;;;;;5051699;28;20197;-68
2022/08/09 11:33:09;;;;;;;6.37;4.10;;;;;;;;;;5053608;28;20572;-68
2022/08/09 11:35:54;;;;;;;4.03;3.63;;;;;;;;;;5051885;28;20245;-68
2022/08/09 11:38:22;;;;;;;4.83;3.30;;;;;;;;;;5053724;28;20170;-69
2022/08/09 11:40:49;;;;;;;3.43;3.13;;;;;;;;;;5055825;28;20607;-68
2022/08/09 11:43:16;;;;;;;3.53;3.20;;;;;;;;;;5057575;28;20189;-68
2022/08/09 11:45:53;;;;;;;5.93;3.63;;;;;;;;;;5058348;28;20187;-69
2022/08/09 11:48:20;;;;;;;4.73;3.47;;;;;;;;;;5057476;28;20166;-68
2022/08/09 11:50:58;;;;;;;4.43;3.80;;;;;;;;;;5055386;28;20297;-68
2022/08/09 11:53:26;;;;;;;4.90;3.70;;;;;;;;;;5055705;28;20174;-69
2022/08/09 11:55:56;;;;;;;7.30;3.43;;;;;;;;;;5055952;28;20561;-69
2022/08/09 11:58:22;;;;;;;4.80;3.60;;;;;;;;;;5056866;28;20669;-69
2022/08/09 12:00:48;;;;;;;5.00;3.97;;;;;;;;;;5057076;28;20198;-68
2022/08/09 12:03:15;;;;;;;4.40;4.00;;;;;;;;;;5055444;28;20277;-68
2022/08/09 12:05:42;;;;;;;4.07;3.47;;;;;;;;;;5056919;28;20244;-68
2022/08/09 12:08:08;;;;;;;5.27;3.50;;;;;;;;;;5055374;28;20182;-68
2022/08/09 12:10:35;;;;;;;4.70;3.63;;;;;;;;;;5055248;28;20202;-69
2022/08/09 12:13:01;;;;;;;3.80;3.23;;;;;;;;;;5055500;28;20187;-68
2022/08/09 12:15:27;;;;;;;3.80;3.27;;;;;;;;;;5055351;28;20258;-67
2022/08/09 12:17:54;;;;;;;7.57;3.80;;;;;;;;;;5056686;28;20186;-69
2022/08/09 12:20:25;;;;;;;6.40;3.80;;;;;;;;;;5065361;22;20699;-68
2022/08/09 12:22:55;;;;;;;3.37;3.03;;;;;;;;;;5035861;28;20190;-68
2022/08/09 12:25:22;;;;;;;3.90;3.10;;;;;;;;;;5018659;28;20191;-68
2022/08/09 12:27:48;;;;;;;6.10;2.97;;;;;;;;;;5036059;28;20198;-68
2022/08/09 12:30:14;;;;;;;4.23;3.50;;;;;;;;;;5018018;28;20333;-68
2022/08/09 12:32:40;;;;;;;4.53;3.50;;;;;;;;;;5017969;28;20207;-68
2022/08/09 12:35:07;;;;;;;4.40;3.50;;;;;;;;;;5035702;28;20635;-68
2022/08/09 12:37:34;;;;;;;4.43;3.10;;;;;;;;;;5035711;28;20545;-68
2022/08/09 12:40:01;;;;;;;4.00;3.00;;;;;;;;;;5017745;28;20281;-69
2022/08/09 12:42:27;;;;;;;7.37;3.00;;;;;;;;;;5035607;28;20647;-68
2022/08/09 12:44:52;;;;;;;5.90;3.67;;;;;;;;;;5035717;28;20188;-68
2022/08/09 12:47:19;;;;;;;3.43;3.13;;;;;;;;;;5017817;28;20189;-68
2022/08/09 12:50:16;;;;;;;3.67;3.10;;;;;;;;;;5035396;28;20238;-68
2022/08/09 12:52:40;;;;;;;6.33;3.43;;;;;;;;;;5035033;28;20219;-68
2022/08/09 12:55:08;;;;;;;3.40;2.97;;;;;;;;;;5035399;28;20665;-68
2022/08/09 12:57:38;;;;;;;4.47;3.40;;;;;;;;;;5035388;28;20662;-68
2022/08/09 13:00:17;;;;;;;3.93;3.60;;;;;;;;;;5017391;28;20203;-69
2022/08/09 13:02:57;;;;;;;4.33;2.93;;;;;;;;;;5035227;28;20213;-69
2022/08/09 13:05:24;;;;;;;4.13;3.43;;;;;;;;;;5035242;28;20253;-68
2022/08/09 13:08:13;;;;;;;3.30;3.00;;;;;;;;;;5017529;28;20714;-68
2022/08/09 13:10:45;;;;;;;6.07;3.40;;;;;;;;;;5017122;28;20628;-68
2022/08/09 13:13:12;;;;;;;4.57;3.27;;;;;;;;;;5035254;28;20179;-68
2022/08/09 13:15:51;;;;;;;3.73;2.93;;;;;;;;;;5034993;28;20187;-68
2022/08/09 13:18:17;;;;;;;3.70;2.83;;;;;;;;;;5035281;28;20636;-68
2022/08/09 13:20:43;;;;;;;3.27;2.97;;;;;;;;;;5017074;28;20218;-68
2022/08/09 13:23:09;;;;;;;4.13;2.80;;;;;;;;;;5034832;28;20233;-68
2022/08/09 13:25:41;;;;;;;3.63;2.80;;;;;;;;;;5035236;28;20206;-68
2022/08/09 13:28:15;;;;;;;4.70;3.03;;;;;;;;;;5035031;28;20194;-68
2022/08/09 13:30:42;;;;;;;5.73;3.17;;;;;;;;;;5016797;28;20679;-68
2022/08/09 13:33:09;;;;;;;4.23;3.73;;;;;;;;;;5016777;28;20185;-68
2022/08/09 13:35:35;;;;;;;7.10;4.63;;;;;;;;;;5034476;28;20171;-68
2022/08/09 13:38:01;;;;;;;5.87;4.53;;;;;;;;;;5034568;28;20747;-68
2022/08/09 13:40:27;;;;;;;4.33;3.80;;;;;;;;;;5034399;28;20201;-68
2022/08/09 13:42:53;;;;;;;11.53;4.17;;;;;;;;;;5016671;28;20229;-68
2022/08/09 13:45:19;;;;;;;7.07;4.80;;;;;;;;;;5034320;28;20643;-68
2022/08/09 13:47:45;;;;;;;8.67;4.50;;;;;;;;;;5034352;28;20201;-68
2022/08/09 13:50:12;;;;;;;4.03;3.70;;;;;;;;;;5034505;28;20195;-67
2022/08/09 13:52:39;;;;;;;7.00;5.07;;;;;;;;;;5016567;28;20340;-68
2022/08/09 13:55:05;;;;;;;5.57;4.33;;;;;;;;;;5034060;28;20237;-68
2022/08/09 13:57:33;;;;;;;6.77;4.23;;;;;;;;;;5016253;28;20241;-68
2022/08/09 13:59:59;;;;;;;3.73;3.43;;;;;;;;;;5034411;28;20261;-67
2022/08/09 14:02:25;;;;;;;4.40;3.72;;;;;;;;;;5015705;28;20187;-68
2022/08/09 14:04:51;;;;;;;4.15;3.67;;;;;;;;;;5033785;28;20210;-68
2022/08/09 14:07:17;;;;;;;5.05;3.90;;;;;;;;;;5033834;28;20183;-68
2022/08/09 14:09:43;;;;;;;6.57;3.80;;;;;;;;;;5033909;28;20245;-68
2022/08/09 14:12:09;;;;;;;3.83;3.40;;;;;;;;;;5033824;28;20203;-67
2022/08/09 14:14:35;;;;;;;3.85;3.10;;;;;;;;;;5034208;28;20179;-68
2022/08/09 14:17:01;;;;;;;4.65;3.42;;;;;;;;;;5033853;28;20172;-68
2022/08/09 14:19:27;;;;;;;5.40;3.08;;;;;;;;;;5015974;28;20215;-67
2022/08/09 14:21:53;;;;;;;4.13;3.30;;;;;;;;;;5033916;28;20185;-67
2022/08/09 14:24:19;;;;;;;4.25;2.80;;;;;;;;;;5016090;28;20233;-67
2022/08/09 14:26:46;;;;;;;3.35;3.05;;;;;;;;;;5015937;28;20187;-68
2022/08/09 14:29:14;;;;;;;3.95;3.55;;;;;;;;;;5033427;28;20671;-68
2022/08/09 14:31:40;;;;;;;6.13;3.30;;;;;;;;;;5033741;28;20214;-68
2022/08/09 14:34:06;;;;;;;4.50;3.67;;;;;;;;;;5015743;28;20272;-68
2022/08/09 14:36:32;;;;;;;21.17;4.40;;;;;;;;;;5015814;28;20171;-67
2022/08/09 14:38:58;;;;;;;2.60;2.40;;;;;;;;;;5015864;28;20712;-67
2022/08/09 14:41:25;;;;;;;4.93;3.10;;;;;;;;;;5016424;28;20663;-66
2022/08/09 14:43:51;;;;;;;3.85;2.83;;;;;;;;;;5033768;28;20259;-66
2022/08/09 14:46:17;;;;;;;3.28;3.03;;;;;;;;;;5033364;28;20254;-66
2022/08/09 14:48:43;;;;;;;3.63;2.97;;;;;;;;;;5015655;28;20658;-66